Time;durP1;ratioP1;P1;durP2;ratioP2;P2;SDS_P1;SDS_P2;PMS_P1;PMS_P2;Temp;Humidity;BMP_temperature;BMP_pressure;BME280_temperature;BME280_humidity;BME280_pressure;Samples;Min_cycle;Max_cycle;Signal;HPM_P1;HPM_P2
2023/07/12 00:00:42;;;;;;;4.07;3.67;;;;;;;;;;5137192;27;20977;-65
2023/07/12 00:03:09;;;;;;;4.07;3.27;;;;;;;;;;5136539;27;20475;-66
2023/07/12 00:05:36;;;;;;;5.53;3.40;;;;;;;;;;5136026;27;20454;-65
2023/07/12 00:08:04;;;;;;;3.20;2.83;;;;;;;;;;5135817;27;20453;-66
2023/07/12 00:10:34;;;;;;;5.97;3.10;;;;;;;;;;5136034;27;20438;-65
2023/07/12 00:13:03;;;;;;;3.97;2.93;;;;;;;;;;5134771;27;20933;-67
2023/07/12 00:15:31;;;;;;;4.03;3.63;;;;;;;;;;5136578;27;20908;-66
2023/07/12 00:17:58;;;;;;;5.03;3.57;;;;;;;;;;5136023;27;20442;-65
2023/07/12 00:20:28;;;;;;;6.73;3.17;;;;;;;;;;5135635;27;20441;-65
2023/07/12 00:22:55;;;;;;;3.80;2.90;;;;;;;;;;5135559;27;20476;-66
2023/07/12 00:25:23;;;;;;;2.33;2.13;;;;;;;;;;5135746;27;20437;-66
2023/07/12 00:27:51;;;;;;;3.23;2.43;;;;;;;;;;5135905;27;20447;-65
2023/07/12 00:30:21;;;;;;;2.77;2.47;;;;;;;;;;5135309;27;20929;-65
2023/07/12 00:32:55;;;;;;;5.07;2.67;;;;;;;;;;5136311;27;20432;-65
2023/07/12 00:35:24;;;;;;;2.47;2.27;;;;;;;;;;5135563;27;20429;-66
2023/07/12 00:37:52;;;;;;;5.10;2.23;;;;;;;;;;5135425;27;20922;-65
2023/07/12 00:40:43;;;;;;;2.50;2.30;;;;;;;;;;5135514;27;20437;-66
2023/07/12 00:43:17;;;;;;;2.20;2.00;;;;;;;;;;5135146;27;20472;-66
2023/07/12 00:45:47;;;;;;;2.77;2.30;;;;;;;;;;5135473;27;20434;-65
2023/07/12 00:48:14;;;;;;;2.30;2.10;;;;;;;;;;5135406;27;20438;-66
2023/07/12 00:50:42;;;;;;;2.87;2.20;;;;;;;;;;5135003;27;20445;-65
2023/07/12 00:53:13;;;;;;;2.37;1.80;;;;;;;;;;5135353;27;20444;-65
2023/07/12 00:55:58;;;;;;;2.57;2.20;;;;;;;;;;5135245;27;20433;-65
2023/07/12 00:58:25;;;;;;;1.77;1.67;;;;;;;;;;5134852;27;20459;-65
2023/07/12 01:00:54;;;;;;;2.50;2.30;;;;;;;;;;5135184;27;20479;-65
2023/07/12 01:03:22;;;;;;;2.63;2.10;;;;;;;;;;5134946;27;20480;-66
2023/07/12 01:05:50;;;;;;;3.60;1.97;;;;;;;;;;5135103;27;20445;-67
2023/07/12 01:08:17;;;;;;;3.03;2.43;;;;;;;;;;5134657;27;20437;-65
2023/07/12 01:10:44;;;;;;;2.63;2.17;;;;;;;;;;5134623;27;20444;-66
2023/07/12 01:13:11;;;;;;;2.83;2.60;;;;;;;;;;5134680;27;20442;-66
2023/07/12 01:15:39;;;;;;;3.70;2.20;;;;;;;;;;5134574;27;20441;-66
2023/07/12 01:18:08;;;;;;;2.53;2.20;;;;;;;;;;5134292;27;20934;-66
2023/07/12 01:20:36;;;;;;;5.60;2.90;;;;;;;;;;5134677;27;20449;-66
2023/07/12 01:23:05;;;;;;;2.40;2.10;;;;;;;;;;5134374;27;20479;-66
2023/07/12 01:25:37;;;;;;;2.37;2.17;;;;;;;;;;5134062;27;20436;-66
2023/07/12 01:28:04;;;;;;;3.60;2.70;;;;;;;;;;5134452;27;20441;-66
2023/07/12 01:30:32;;;;;;;3.90;2.10;;;;;;;;;;5134475;27;20788;-66
2023/07/12 01:32:59;;;;;;;2.43;1.97;;;;;;;;;;5134090;27;20461;-66
2023/07/12 01:35:27;;;;;;;2.73;2.53;;;;;;;;;;5134138;27;20440;-67
2023/07/12 01:37:54;;;;;;;2.60;2.40;;;;;;;;;;5134073;27;20970;-66
2023/07/12 01:40:22;;;;;;;2.70;2.50;;;;;;;;;;5134505;27;20440;-67
2023/07/12 01:42:49;;;;;;;2.40;2.20;;;;;;;;;;5134794;27;20483;-66
2023/07/12 01:45:17;;;;;;;2.83;1.90;;;;;;;;;;5134498;27;20466;-66
2023/07/12 01:47:44;;;;;;;3.83;2.20;;;;;;;;;;5134388;27;20447;-66
2023/07/12 01:50:12;;;;;;;4.53;2.20;;;;;;;;;;5134093;27;20497;-66
2023/07/12 01:52:39;;;;;;;3.13;2.80;;;;;;;;;;5134477;27;20444;-66
2023/07/12 01:55:06;;;;;;;2.20;2.00;;;;;;;;;;5134259;27;20439;-66
2023/07/12 01:57:35;;;;;;;2.83;2.00;;;;;;;;;;5134256;27;20447;-66
2023/07/12 02:00:03;;;;;;;4.33;2.50;;;;;;;;;;5134080;27;21051;-66
2023/07/12 02:02:31;;;;;;;4.30;2.90;;;;;;;;;;5133688;27;20515;-66
2023/07/12 02:04:58;;;;;;;2.30;2.10;;;;;;;;;;5134146;27;20509;-66
2023/07/12 02:07:26;;;;;;;3.67;2.40;;;;;;;;;;5134517;27;20442;-66
2023/07/12 02:10:09;;;;;;;5.23;2.30;;;;;;;;;;5134380;27;20439;-66
2023/07/12 02:12:38;;;;;;;3.20;2.30;;;;;;;;;;5133989;27;20955;-66
2023/07/12 02:15:05;;;;;;;2.73;2.43;;;;;;;;;;5134591;27;20454;-66
2023/07/12 02:17:32;;;;;;;3.73;2.07;;;;;;;;;;5134092;27;20824;-66
2023/07/12 02:20:00;;;;;;;2.50;1.93;;;;;;;;;;5134108;27;20451;-66
2023/07/12 02:22:27;;;;;;;3.53;2.10;;;;;;;;;;5133765;27;20475;-66
2023/07/12 02:24:55;;;;;;;3.57;2.57;;;;;;;;;;5134036;27;20443;-66
2023/07/12 02:27:22;;;;;;;3.03;2.77;;;;;;;;;;5134193;27;20443;-66
2023/07/12 02:29:50;;;;;;;2.90;1.90;;;;;;;;;;5133682;27;20452;-67
2023/07/12 02:32:17;;;;;;;5.20;2.20;;;;;;;;;;5133674;27;20447;-66
2023/07/12 02:34:45;;;;;;;3.80;2.63;;;;;;;;;;5133707;27;20942;-66
2023/07/12 02:37:12;;;;;;;3.83;2.63;;;;;;;;;;5135847;27;20445;-66
2023/07/12 02:39:39;;;;;;;2.90;2.60;;;;;;;;;;5138159;27;20435;-66
2023/07/12 02:42:06;;;;;;;2.90;2.47;;;;;;;;;;5137855;27;20431;-66
2023/07/12 02:44:34;;;;;;;3.60;2.60;;;;;;;;;;5137899;27;20491;-66
2023/07/12 02:47:02;;;;;;;4.00;2.77;;;;;;;;;;5137825;27;20444;-66
2023/07/12 02:49:29;;;;;;;4.40;3.20;;;;;;;;;;5138027;27;20437;-66
2023/07/12 02:51:56;;;;;;;3.00;2.70;;;;;;;;;;5137679;27;20455;-66
2023/07/12 02:54:24;;;;;;;3.33;2.73;;;;;;;;;;5137712;27;20448;-66
2023/07/12 02:56:51;;;;;;;9.60;2.63;;;;;;;;;;5137488;27;20535;-66
2023/07/12 02:59:18;;;;;;;3.53;2.40;;;;;;;;;;5137253;27;20477;-66
2023/07/12 03:01:47;;;;;;;5.90;3.00;;;;;;;;;;5137441;27;20435;-66
2023/07/12 03:04:16;;;;;;;4.50;3.40;;;;;;;;;;5137120;27;20469;-66
2023/07/12 03:06:44;;;;;;;5.63;3.10;;;;;;;;;;5137003;27;20445;-66
2023/07/12 03:09:11;;;;;;;3.00;2.67;;;;;;;;;;5137099;27;20931;-66
2023/07/12 03:11:39;;;;;;;10.17;3.20;;;;;;;;;;5137300;27;20441;-66
2023/07/12 03:14:06;;;;;;;7.27;3.13;;;;;;;;;;5137451;27;20441;-66
2023/07/12 03:16:34;;;;;;;2.90;2.53;;;;;;;;;;5136899;27;20446;-66
2023/07/12 03:19:01;;;;;;;3.67;2.77;;;;;;;;;;5137613;27;20792;-66
2023/07/12 03:21:29;;;;;;;3.90;2.30;;;;;;;;;;5137150;27;20443;-66
2023/07/12 03:23:57;;;;;;;3.33;2.60;;;;;;;;;;5137078;27;20475;-66
2023/07/12 03:26:24;;;;;;;3.83;2.47;;;;;;;;;;5136928;27;20448;-66
2023/07/12 03:28:51;;;;;;;4.03;2.63;;;;;;;;;;5137313;27;20449;-66
2023/07/12 03:31:18;;;;;;;4.33;2.70;;;;;;;;;;5136954;27;20438;-65
2023/07/12 03:33:46;;;;;;;5.00;2.30;;;;;;;;;;5136934;27;20850;-66
2023/07/12 03:36:14;;;;;;;7.30;2.87;;;;;;;;;;5136734;27;20444;-65
2023/07/12 03:38:43;;;;;;;3.97;2.90;;;;;;;;;;5136439;27;20451;-66
2023/07/12 03:41:11;;;;;;;7.17;2.90;;;;;;;;;;5136363;27;20452;-65
2023/07/12 03:43:38;;;;;;;3.50;2.60;;;;;;;;;;5137032;27;20484;-66
2023/07/12 03:46:05;;;;;;;5.90;2.97;;;;;;;;;;5136366;27;20439;-69
2023/07/12 03:48:32;;;;;;;4.47;3.30;;;;;;;;;;5136484;27;20787;-68
2023/07/12 03:51:00;;;;;;;4.70;3.10;;;;;;;;;;5136622;27;20446;-68
2023/07/12 03:53:28;;;;;;;6.10;2.83;;;;;;;;;;5137171;27;20552;-68
2023/07/12 03:55:58;;;;;;;4.70;2.97;;;;;;;;;;5136462;27;20884;-69
2023/07/12 03:58:28;;;;;;;7.03;3.40;;;;;;;;;;5135425;27;20444;-71
2023/07/12 04:00:55;;;;;;;8.13;3.27;;;;;;;;;;5135445;27;20485;-69
2023/07/12 04:03:22;;;;;;;3.53;3.23;;;;;;;;;;5135453;27;20489;-70
2023/07/12 04:05:51;;;;;;;9.70;3.93;;;;;;;;;;5135724;27;20454;-68
2023/07/12 04:08:18;;;;;;;4.20;2.80;;;;;;;;;;5136182;27;20443;-69
2023/07/12 04:10:45;;;;;;;5.80;2.87;;;;;;;;;;5135921;27;20440;-69
2023/07/12 04:13:14;;;;;;;3.67;2.90;;;;;;;;;;5135758;27;20944;-69
2023/07/12 04:15:41;;;;;;;5.47;3.53;;;;;;;;;;5136466;27;20441;-69
2023/07/12 04:18:08;;;;;;;4.30;3.40;;;;;;;;;;5135972;27;20448;-68
2023/07/12 04:20:38;;;;;;;3.73;3.30;;;;;;;;;;5136241;27;20535;-69
2023/07/12 04:23:05;;;;;;;6.63;3.93;;;;;;;;;;5135483;27;20484;-69
2023/07/12 04:25:33;;;;;;;5.93;3.40;;;;;;;;;;5135909;27;20455;-69
2023/07/12 04:28:00;;;;;;;4.40;2.90;;;;;;;;;;5135323;27;20444;-69
2023/07/12 04:30:29;;;;;;;9.30;3.53;;;;;;;;;;5135080;27;20519;-68
2023/07/12 04:32:56;;;;;;;7.00;3.10;;;;;;;;;;5135846;27;20430;-70
2023/07/12 04:35:23;;;;;;;4.13;2.63;;;;;;;;;;5135309;27;20448;-69
2023/07/12 04:37:51;;;;;;;5.90;3.20;;;;;;;;;;5135538;27;20525;-69
2023/07/12 04:40:18;;;;;;;5.93;3.30;;;;;;;;;;5135689;27;20437;-68
2023/07/12 04:42:46;;;;;;;7.93;3.70;;;;;;;;;;5135313;27;20443;-68
2023/07/12 04:45:13;;;;;;;5.23;2.77;;;;;;;;;;5135121;27;20440;-68
2023/07/12 04:47:42;;;;;;;6.00;2.80;;;;;;;;;;5135399;27;20538;-68
2023/07/12 04:50:10;;;;;;;3.60;2.87;;;;;;;;;;5134700;27;20440;-68
2023/07/12 04:52:38;;;;;;;4.47;2.93;;;;;;;;;;5134920;27;20443;-68
2023/07/12 04:55:06;;;;;;;7.27;2.60;;;;;;;;;;5135313;27;20439;-68
2023/07/12 04:57:33;;;;;;;4.87;3.67;;;;;;;;;;5135031;27;20484;-68
2023/07/12 05:00:00;;;;;;;6.77;3.63;;;;;;;;;;5134658;27;20471;-69
2023/07/12 05:02:28;;;;;;;6.53;3.20;;;;;;;;;;5134597;27;20441;-69
2023/07/12 05:04:56;;;;;;;8.27;2.90;;;;;;;;;;5134659;27;20476;-68
2023/07/12 05:07:28;;;;;;;9.00;3.60;;;;;;;;;;5135001;27;20499;-69
2023/07/12 05:09:55;;;;;;;5.40;3.53;;;;;;;;;;5134509;27;20435;-68
2023/07/12 05:12:22;;;;;;;5.23;3.40;;;;;;;;;;5134910;27;20917;-69
2023/07/12 05:14:49;;;;;;;5.00;3.67;;;;;;;;;;5134719;27;20444;-69
2023/07/12 05:17:16;;;;;;;6.40;4.10;;;;;;;;;;5134499;27;20512;-69
2023/07/12 05:19:44;;;;;;;10.40;4.80;;;;;;;;;;5134943;27;20796;-69
2023/07/12 05:22:12;;;;;;;6.30;3.70;;;;;;;;;;5134538;27;20450;-69
2023/07/12 05:24:39;;;;;;;5.57;4.10;;;;;;;;;;5134746;27;20482;-69
2023/07/12 05:27:07;;;;;;;6.33;3.87;;;;;;;;;;5134613;27;20481;-69
2023/07/12 05:29:34;;;;;;;4.57;3.40;;;;;;;;;;5134597;27;20535;-69
2023/07/12 05:32:02;;;;;;;4.43;3.77;;;;;;;;;;5134645;27;20439;-69
2023/07/12 05:34:29;;;;;;;7.50;3.40;;;;;;;;;;5134602;27;20444;-68
2023/07/12 05:36:56;;;;;;;7.80;4.13;;;;;;;;;;5134624;27;20449;-69
2023/07/12 05:39:24;;;;;;;7.63;3.93;;;;;;;;;;5134499;27;20447;-69
2023/07/12 05:41:52;;;;;;;5.80;3.17;;;;;;;;;;5134871;27;20465;-69
2023/07/12 05:44:19;;;;;;;7.50;3.63;;;;;;;;;;5134382;27;20472;-69
2023/07/12 05:46:46;;;;;;;5.30;3.90;;;;;;;;;;5135126;27;20440;-69
2023/07/12 05:49:13;;;;;;;5.70;3.97;;;;;;;;;;5134456;27;20442;-69
2023/07/12 05:51:41;;;;;;;9.63;4.10;;;;;;;;;;5134318;27;20812;-69
2023/07/12 05:54:08;;;;;;;4.23;3.80;;;;;;;;;;5134511;27;20436;-69
2023/07/12 05:56:36;;;;;;;11.23;4.07;;;;;;;;;;5134160;27;20443;-68
2023/07/12 05:59:03;;;;;;;6.23;4.00;;;;;;;;;;5133949;28;20469;-68
2023/07/12 06:01:31;;;;;;;4.83;3.30;;;;;;;;;;5134336;28;20435;-68
2023/07/12 06:03:59;;;;;;;7.17;3.90;;;;;;;;;;5134419;28;20483;-68
2023/07/12 06:06:26;;;;;;;9.77;4.33;;;;;;;;;;5134284;28;20439;-68
2023/07/12 06:08:53;;;;;;;4.50;4.10;;;;;;;;;;5133876;28;20925;-68
2023/07/12 06:11:20;;;;;;;6.93;3.60;;;;;;;;;;5134513;27;20437;-68
2023/07/12 06:13:49;;;;;;;4.10;3.70;;;;;;;;;;5138770;27;20444;-69
2023/07/12 06:16:16;;;;;;;7.43;4.27;;;;;;;;;;5138157;27;20445;-68
2023/07/12 06:18:43;;;;;;;5.90;3.70;;;;;;;;;;5137991;27;20452;-68
2023/07/12 06:21:10;;;;;;;6.03;4.40;;;;;;;;;;5137985;27;20912;-68
2023/07/12 06:23:38;;;;;;;8.73;4.00;;;;;;;;;;5138212;27;20476;-68
2023/07/12 06:26:05;;;;;;;4.87;4.40;;;;;;;;;;5138187;27;20527;-68
2023/07/12 06:28:33;;;;;;;4.80;4.03;;;;;;;;;;5137770;27;20494;-67
2023/07/12 06:31:02;;;;;;;6.70;4.27;;;;;;;;;;5137880;27;20448;-68
2023/07/12 06:33:29;;;;;;;6.10;4.47;;;;;;;;;;5138242;27;20437;-68
2023/07/12 06:35:57;;;;;;;6.13;4.50;;;;;;;;;;5138095;27;20441;-68
2023/07/12 06:38:24;;;;;;;4.77;4.33;;;;;;;;;;5137922;27;20440;-68
2023/07/12 06:40:53;;;;;;;5.60;4.90;;;;;;;;;;5137807;27;20500;-69
2023/07/12 06:43:22;;;;;;;5.43;4.23;;;;;;;;;;5137880;27;20458;-68
2023/07/12 06:45:49;;;;;;;7.70;4.20;;;;;;;;;;5137848;27;20487;-68
2023/07/12 06:48:18;;;;;;;6.90;5.10;;;;;;;;;;5137801;27;20794;-68
2023/07/12 06:50:45;;;;;;;11.70;4.73;;;;;;;;;;5137109;27;20441;-68
2023/07/12 06:53:12;;;;;;;8.40;4.60;;;;;;;;;;5137824;27;20431;-69
2023/07/12 06:55:43;;;;;;;5.00;3.90;;;;;;;;;;5137579;27;20489;-68
2023/07/12 06:58:10;;;;;;;3.87;3.33;;;;;;;;;;5137182;27;20430;-68
2023/07/12 07:00:40;;;;;;;4.03;3.70;;;;;;;;;;5137157;27;20516;-69
2023/07/12 07:03:09;;;;;;;5.03;3.73;;;;;;;;;;5137509;27;20445;-68
2023/07/12 07:05:38;;;;;;;6.60;4.27;;;;;;;;;;5136989;27;20476;-68
2023/07/12 07:08:06;;;;;;;6.93;3.90;;;;;;;;;;5137421;27;20428;-69
2023/07/12 07:10:33;;;;;;;5.27;3.93;;;;;;;;;;5136994;27;20441;-68
2023/07/12 07:13:00;;;;;;;8.43;4.20;;;;;;;;;;5137024;27;20446;-67
2023/07/12 07:15:27;;;;;;;5.33;3.90;;;;;;;;;;5137346;27;20443;-68
2023/07/12 07:17:55;;;;;;;7.03;4.13;;;;;;;;;;5136939;27;20442;-67
2023/07/12 07:20:22;;;;;;;10.27;3.70;;;;;;;;;;5137105;27;20566;-68
2023/07/12 07:22:50;;;;;;;4.77;4.23;;;;;;;;;;5136295;27;20442;-68
2023/07/12 07:25:18;;;;;;;4.83;3.83;;;;;;;;;;5136920;27;20471;-68
2023/07/12 07:27:45;;;;;;;6.90;4.23;;;;;;;;;;5137024;27;20432;-68
2023/07/12 07:30:13;;;;;;;8.80;4.17;;;;;;;;;;5137160;27;20912;-68
2023/07/12 07:32:40;;;;;;;5.47;3.63;;;;;;;;;;5136605;27;20438;-68
2023/07/12 07:35:08;;;;;;;7.70;4.53;;;;;;;;;;5136527;27;20537;-68
2023/07/12 07:37:35;;;;;;;4.70;4.03;;;;;;;;;;5136899;27;20467;-68
2023/07/12 07:40:04;;;;;;;8.97;5.30;;;;;;;;;;5136748;27;20438;-68
2023/07/12 07:42:31;;;;;;;5.87;4.43;;;;;;;;;;5136785;27;20523;-68
2023/07/12 07:44:58;;;;;;;7.73;5.10;;;;;;;;;;5136191;27;20480;-68
2023/07/12 07:47:25;;;;;;;8.50;4.70;;;;;;;;;;5136585;27;20440;-68
2023/07/12 07:49:53;;;;;;;6.53;4.30;;;;;;;;;;5136215;27;20453;-68
2023/07/12 07:52:20;;;;;;;10.37;3.93;;;;;;;;;;5136200;27;20438;-68
2023/07/12 07:54:47;;;;;;;4.73;4.33;;;;;;;;;;5136212;27;20973;-68
2023/07/12 07:57:15;;;;;;;7.30;4.10;;;;;;;;;;5136596;27;20531;-68
2023/07/12 07:59:43;;;;;;;6.37;4.30;;;;;;;;;;5135712;27;20480;-68
2023/07/12 08:02:10;;;;;;;7.20;4.37;;;;;;;;;;5136132;27;20937;-68
2023/07/12 08:04:39;;;;;;;6.57;5.13;;;;;;;;;;5136180;27;20476;-68
2023/07/12 08:07:07;;;;;;;7.03;4.63;;;;;;;;;;5137058;27;20755;-68
2023/07/12 08:09:35;;;;;;;6.77;4.90;;;;;;;;;;5136276;27;20882;-68
2023/07/12 08:12:02;;;;;;;7.07;4.33;;;;;;;;;;5136122;27;20445;-68
2023/07/12 08:14:31;;;;;;;6.10;4.30;;;;;;;;;;5135859;27;20449;-68
2023/07/12 08:16:58;;;;;;;4.73;3.73;;;;;;;;;;5136074;27;20444;-68
2023/07/12 08:19:25;;;;;;;8.33;4.13;;;;;;;;;;5135750;27;20476;-67
2023/07/12 08:21:53;;;;;;;6.63;3.93;;;;;;;;;;5135921;27;20449;-68
2023/07/12 08:24:20;;;;;;;6.10;3.33;;;;;;;;;;5135555;27;20473;-67
2023/07/12 08:26:47;;;;;;;9.10;3.63;;;;;;;;;;5135599;27;20450;-67
2023/07/12 08:29:14;;;;;;;6.87;3.93;;;;;;;;;;5135870;27;20456;-67
2023/07/12 08:31:43;;;;;;;8.27;4.07;;;;;;;;;;5135874;27;20445;-67
2023/07/12 08:34:10;;;;;;;6.50;3.27;;;;;;;;;;5134974;27;20452;-67
2023/07/12 08:36:37;;;;;;;6.43;3.27;;;;;;;;;;5135377;27;20437;-67
2023/07/12 08:39:05;;;;;;;8.03;3.70;;;;;;;;;;5135329;27;20436;-67
2023/07/12 08:41:32;;;;;;;7.17;3.90;;;;;;;;;;5135581;27;20498;-67
2023/07/12 08:43:59;;;;;;;4.23;3.83;;;;;;;;;;5135548;27;20445;-68
2023/07/12 08:46:30;;;;;;;7.23;3.93;;;;;;;;;;5135457;27;20432;-67
2023/07/12 08:49:02;;;;;;;7.17;4.13;;;;;;;;;;5135497;27;20845;-67
2023/07/12 08:51:30;;;;;;;6.90;4.17;;;;;;;;;;5135408;27;20429;-67
2023/07/12 08:53:57;;;;;;;7.97;4.13;;;;;;;;;;5135543;27;20442;-68
2023/07/12 08:56:25;;;;;;;5.63;3.80;;;;;;;;;;5134998;27;20528;-67
2023/07/12 08:58:53;;;;;;;15.47;4.33;;;;;;;;;;5135273;27;20473;-68
2023/07/12 09:01:33;;;;;;;5.37;3.83;;;;;;;;;;5135719;27;20793;-68
2023/07/12 09:04:01;;;;;;;6.00;3.80;;;;;;;;;;5134957;27;20917;-68
2023/07/12 09:06:28;;;;;;;5.70;3.47;;;;;;;;;;5135044;27;20474;-68
2023/07/12 09:08:56;;;;;;;5.77;3.00;;;;;;;;;;5135169;27;20473;-68
2023/07/12 09:11:28;;;;;;;6.43;3.30;;;;;;;;;;5135228;27;20460;-67
2023/07/12 09:13:57;;;;;;;7.03;3.23;;;;;;;;;;5134903;27;20444;-67
2023/07/12 09:16:25;;;;;;;10.60;3.57;;;;;;;;;;5135238;27;20437;-67
2023/07/12 09:18:53;;;;;;;3.20;3.00;;;;;;;;;;5134900;27;20890;-68
2023/07/12 09:21:23;;;;;;;10.60;3.13;;;;;;;;;;5134673;27;20934;-68
2023/07/12 09:23:53;;;;;;;6.07;3.93;;;;;;;;;;5135508;27;20418;-68
2023/07/12 09:26:22;;;;;;;7.30;3.20;;;;;;;;;;5134485;27;20958;-68
2023/07/12 09:28:50;;;;;;;5.43;3.03;;;;;;;;;;5134865;27;20452;-67
2023/07/12 09:31:22;;;;;;;12.90;4.80;;;;;;;;;;5134662;27;20429;-67
2023/07/12 09:33:51;;;;;;;7.33;3.10;;;;;;;;;;5135031;27;20430;-68
2023/07/12 09:36:18;;;;;;;5.53;3.50;;;;;;;;;;5134221;27;20451;-67
2023/07/12 09:38:47;;;;;;;4.30;2.63;;;;;;;;;;5134830;27;20445;-68
2023/07/12 09:41:18;;;;;;;4.03;2.90;;;;;;;;;;5134464;27;20437;-67
2023/07/12 09:43:47;;;;;;;11.60;3.77;;;;;;;;;;5134348;27;20418;-67
2023/07/12 09:46:20;;;;;;;3.87;2.83;;;;;;;;;;5134599;27;20477;-68
2023/07/12 09:48:49;;;;;;;6.53;3.03;;;;;;;;;;5134333;27;20433;-67
2023/07/12 09:51:21;;;;;;;4.40;2.63;;;;;;;;;;5134416;27;20436;-68
2023/07/12 09:53:53;;;;;;;7.70;3.10;;;;;;;;;;5134736;27;20776;-68
2023/07/12 09:56:25;;;;;;;6.30;3.27;;;;;;;;;;5134403;27;20434;-68
2023/07/12 09:58:57;;;;;;;4.07;2.63;;;;;;;;;;5134404;27;20781;-68
2023/07/12 10:01:26;;;;;;;4.53;2.90;;;;;;;;;;5135105;28;20437;-68
2023/07/12 10:03:55;;;;;;;4.30;2.60;;;;;;;;;;5134740;28;20441;-68
2023/07/12 10:06:28;;;;;;;5.27;3.90;;;;;;;;;;5134205;28;20478;-68
2023/07/12 10:08:59;;;;;;;6.40;3.13;;;;;;;;;;5134630;28;20430;-67
2023/07/12 10:11:31;;;;;;;8.73;3.60;;;;;;;;;;5134355;28;20510;-68
2023/07/12 10:14:01;;;;;;;4.60;2.90;;;;;;;;;;5134005;28;20422;-67
2023/07/12 10:16:30;;;;;;;7.80;3.17;;;;;;;;;;5134087;28;20528;-68
2023/07/12 10:18:58;;;;;;;4.40;2.83;;;;;;;;;;5134530;28;20452;-67
2023/07/12 10:21:27;;;;;;;5.90;2.97;;;;;;;;;;5134233;28;20927;-68
2023/07/12 10:23:56;;;;;;;6.40;2.77;;;;;;;;;;5134559;28;20495;-68
2023/07/12 10:26:25;;;;;;;5.90;3.03;;;;;;;;;;5133453;28;20484;-68
2023/07/12 10:28:57;;;;;;;3.40;3.07;;;;;;;;;;5133846;28;20442;-67
2023/07/12 10:31:29;;;;;;;11.13;2.97;;;;;;;;;;5134670;28;20432;-67
2023/07/12 10:34:00;;;;;;;5.03;3.40;;;;;;;;;;5133712;28;20429;-68
2023/07/12 10:36:28;;;;;;;6.50;3.20;;;;;;;;;;5134304;28;20464;-67
2023/07/12 10:38:55;;;;;;;7.50;3.20;;;;;;;;;;5133928;28;20453;-67
2023/07/12 10:41:24;;;;;;;6.53;3.10;;;;;;;;;;5133753;28;20441;-67
2023/07/12 10:43:59;;;;;;;5.23;3.03;;;;;;;;;;5133608;28;20440;-68
2023/07/12 10:46:30;;;;;;;7.90;3.33;;;;;;;;;;5134271;28;20463;-67
2023/07/12 10:48:57;;;;;;;4.10;2.90;;;;;;;;;;5133986;28;20421;-67
2023/07/12 10:51:35;;;;;;;11.17;3.40;;;;;;;;;;5134524;28;20437;-68
2023/07/12 10:54:03;;;;;;;5.00;3.20;;;;;;;;;;5133549;28;20470;-67
2023/07/12 10:56:34;;;;;;;5.20;3.00;;;;;;;;;;5134162;27;20438;-68
2023/07/12 10:59:04;;;;;;;3.50;3.20;;;;;;;;;;5136395;27;20568;-67
2023/07/12 11:01:51;;;;;;;3.97;2.77;;;;;;;;;;5137351;27;20426;-68
2023/07/12 11:04:25;;;;;;;7.00;3.30;;;;;;;;;;5137451;27;20439;-68
2023/07/12 11:06:57;;;;;;;6.37;2.83;;;;;;;;;;5137778;27;20916;-68
2023/07/12 11:09:24;;;;;;;3.80;2.60;;;;;;;;;;5136994;27;20457;-69
2023/07/12 11:11:52;;;;;;;3.90;2.80;;;;;;;;;;5137545;27;20438;-68
2023/07/12 11:14:28;;;;;;;4.63;3.20;;;;;;;;;;5137371;27;20434;-67
2023/07/12 11:17:15;;;;;;;4.97;2.50;;;;;;;;;;5137414;27;20427;-68
2023/07/12 11:19:45;;;;;;;6.23;2.40;;;;;;;;;;5137681;27;20432;-68
2023/07/12 11:22:14;;;;;;;5.23;2.70;;;;;;;;;;5137512;27;20424;-64
2023/07/12 11:24:49;;;;;;;7.20;2.87;;;;;;;;;;5136902;27;20439;-64
2023/07/12 11:27:27;;;;;;;3.43;2.83;;;;;;;;;;5137203;27;20483;-65
2023/07/12 11:29:57;;;;;;;6.20;3.20;;;;;;;;;;5137619;27;20445;-65
2023/07/12 11:32:27;;;;;;;7.63;2.70;;;;;;;;;;5137434;27;20421;-65
2023/07/12 11:34:58;;;;;;;5.30;2.50;;;;;;;;;;5137092;27;20444;-64
2023/07/12 11:37:29;;;;;;;4.20;2.90;;;;;;;;;;5135267;27;20437;-67
2023/07/12 11:39:56;;;;;;;3.90;2.60;;;;;;;;;;5134841;27;20958;-65
2023/07/12 11:42:25;;;;;;;4.10;2.53;;;;;;;;;;5134934;27;20452;-65
2023/07/12 11:45:04;;;;;;;5.37;2.60;;;;;;;;;;5135376;27;20529;-65
2023/07/12 11:47:32;;;;;;;3.47;2.40;;;;;;;;;;5135332;27;20981;-65
2023/07/12 11:50:01;;;;;;;8.43;2.93;;;;;;;;;;5135320;27;20530;-65
2023/07/12 11:52:28;;;;;;;5.23;2.60;;;;;;;;;;5135302;27;20967;-65
2023/07/12 11:54:56;;;;;;;4.03;2.50;;;;;;;;;;5135026;27;20522;-64
2023/07/12 11:57:23;;;;;;;3.87;2.70;;;;;;;;;;5135243;27;20448;-65
2023/07/12 11:59:52;;;;;;;2.83;2.53;;;;;;;;;;5134451;27;20474;-65
2023/07/12 12:02:22;;;;;;;5.83;3.00;;;;;;;;;;5135471;27;20492;-64
2023/07/12 12:04:50;;;;;;;4.60;2.70;;;;;;;;;;5134999;27;20443;-65
2023/07/12 12:07:22;;;;;;;3.73;2.57;;;;;;;;;;5134867;27;20476;-64
2023/07/12 12:09:49;;;;;;;8.90;2.83;;;;;;;;;;5134772;27;20792;-65
2023/07/12 12:12:19;;;;;;;4.57;3.10;;;;;;;;;;5135078;27;20443;-64
2023/07/12 12:14:48;;;;;;;4.90;2.73;;;;;;;;;;5135633;27;20844;-64
2023/07/12 12:17:16;;;;;;;5.03;2.73;;;;;;;;;;5135360;27;20446;-63
2023/07/12 12:19:50;;;;;;;3.10;2.80;;;;;;;;;;5135832;27;20447;-64
2023/07/12 12:22:18;;;;;;;4.50;3.80;;;;;;;;;;5135997;27;20441;-64
2023/07/12 12:24:48;;;;;;;3.73;2.90;;;;;;;;;;5135198;27;20454;-65
2023/07/12 12:27:18;;;;;;;5.90;3.23;;;;;;;;;;5135219;27;20479;-64
2023/07/12 12:29:45;;;;;;;7.80;2.40;;;;;;;;;;5134404;27;20438;-65
2023/07/12 12:32:16;;;;;;;4.37;2.63;;;;;;;;;;5135273;27;20445;-65
2023/07/12 12:34:47;;;;;;;4.07;2.70;;;;;;;;;;5135412;27;20437;-64
2023/07/12 12:37:18;;;;;;;3.10;2.60;;;;;;;;;;5135161;27;20433;-64
2023/07/12 12:39:57;;;;;;;6.23;2.93;;;;;;;;;;5134896;27;20424;-64
2023/07/12 12:42:25;;;;;;;3.77;2.50;;;;;;;;;;5134909;27;20516;-64
2023/07/12 12:44:54;;;;;;;6.80;2.10;;;;;;;;;;5134729;27;20452;-64
2023/07/12 12:47:22;;;;;;;3.23;2.37;;;;;;;;;;5135188;27;20853;-64
2023/07/12 12:49:50;;;;;;;4.93;3.47;;;;;;;;;;5134061;27;20441;-65
2023/07/12 12:52:25;;;;;;;3.40;2.70;;;;;;;;;;5134354;27;20449;-64
2023/07/12 12:54:52;;;;;;;3.50;2.77;;;;;;;;;;5134573;27;20425;-65
2023/07/12 12:57:19;;;;;;;3.60;2.20;;;;;;;;;;5135246;27;20452;-65
2023/07/12 12:59:47;;;;;;;5.30;2.80;;;;;;;;;;5134569;27;20462;-65
2023/07/12 13:02:15;;;;;;;4.57;2.40;;;;;;;;;;5134860;27;20501;-64
2023/07/12 13:04:42;;;;;;;5.53;3.03;;;;;;;;;;5135046;27;20435;-64
2023/07/12 13:07:16;;;;;;;5.83;2.30;;;;;;;;;;5135335;27;20487;-64
2023/07/12 13:09:46;;;;;;;4.10;2.47;;;;;;;;;;5134803;27;20449;-65
2023/07/12 13:12:16;;;;;;;5.53;2.60;;;;;;;;;;5135000;27;20449;-64
2023/07/12 13:14:43;;;;;;;4.90;2.90;;;;;;;;;;5135168;27;20447;-64
2023/07/12 13:17:14;;;;;;;5.13;2.40;;;;;;;;;;5135406;27;20448;-64
2023/07/12 13:19:42;;;;;;;3.27;2.30;;;;;;;;;;5135234;27;20725;-64
2023/07/12 13:22:11;;;;;;;5.00;1.80;;;;;;;;;;5134963;27;20434;-64
2023/07/12 13:24:38;;;;;;;4.17;2.30;;;;;;;;;;5134400;27;20941;-64
2023/07/12 13:27:27;;;;;;;5.60;2.47;;;;;;;;;;5134377;27;21019;-64
2023/07/12 13:29:54;;;;;;;2.90;2.13;;;;;;;;;;5135000;27;20454;-64
2023/07/12 13:32:22;;;;;;;3.83;1.97;;;;;;;;;;5134463;27;20439;-64
2023/07/12 13:34:50;;;;;;;4.50;2.63;;;;;;;;;;5134462;27;20451;-63
2023/07/12 13:37:19;;;;;;;4.23;2.30;;;;;;;;;;5134291;27;20955;-64
2023/07/12 13:39:46;;;;;;;3.53;2.13;;;;;;;;;;5134521;27;20527;-63
2023/07/12 13:42:15;;;;;;;5.73;2.47;;;;;;;;;;5134275;27;20446;-64
2023/07/12 13:44:43;;;;;;;3.00;2.33;;;;;;;;;;5134140;27;20443;-64
2023/07/12 13:47:14;;;;;;;3.90;2.10;;;;;;;;;;5134916;27;20474;-64
2023/07/12 13:49:41;;;;;;;2.50;2.00;;;;;;;;;;5134639;27;20485;-64
2023/07/12 13:52:11;;;;;;;4.17;2.37;;;;;;;;;;5134467;27;20442;-65
2023/07/12 13:54:38;;;;;;;3.33;1.90;;;;;;;;;;5134723;27;20469;-64
2023/07/12 13:57:09;;;;;;;6.50;1.97;;;;;;;;;;5134105;27;20455;-65
2023/07/12 13:59:39;;;;;;;3.00;2.10;;;;;;;;;;5134331;27;20563;-64
2023/07/12 14:02:17;;;;;;;4.10;2.23;;;;;;;;;;5134045;28;20470;-64
2023/07/12 14:04:44;;;;;;;5.13;2.50;;;;;;;;;;5133982;28;20444;-64
2023/07/12 14:07:11;;;;;;;3.20;1.80;;;;;;;;;;5133949;28;20992;-65
2023/07/12 14:09:38;;;;;;;3.50;2.00;;;;;;;;;;5134288;28;20475;-66
2023/07/12 14:12:07;;;;;;;4.23;1.87;;;;;;;;;;5135032;28;20445;-64
2023/07/12 14:14:34;;;;;;;3.40;1.93;;;;;;;;;;5134465;28;20447;-65
2023/07/12 14:17:03;;;;;;;3.23;2.10;;;;;;;;;;5134358;28;20445;-65
2023/07/12 14:19:30;;;;;;;3.57;1.93;;;;;;;;;;5134839;28;20444;-64
2023/07/12 14:21:57;;;;;;;5.33;2.70;;;;;;;;;;5133956;28;20476;-65
2023/07/12 14:24:24;;;;;;;5.13;2.30;;;;;;;;;;5132922;28;20447;-65
2023/07/12 14:26:52;;;;;;;4.23;2.20;;;;;;;;;;5133000;27;20486;-64
2023/07/12 14:29:19;;;;;;;4.47;2.00;;;;;;;;;;5133497;28;20419;-64
2023/07/12 14:31:47;;;;;;;4.00;2.30;;;;;;;;;;5134253;27;20419;-64
2023/07/12 14:34:16;;;;;;;3.20;2.00;;;;;;;;;;5137517;27;20415;-64
2023/07/12 14:36:44;;;;;;;5.70;2.00;;;;;;;;;;5138193;27;20473;-64
2023/07/12 14:39:11;;;;;;;3.77;1.87;;;;;;;;;;5138085;27;20533;-64
2023/07/12 14:41:39;;;;;;;3.50;2.10;;;;;;;;;;5138228;27;20808;-63
2023/07/12 14:44:11;;;;;;;3.93;2.13;;;;;;;;;;5137402;27;20770;-66
2023/07/12 14:46:38;;;;;;;2.90;2.27;;;;;;;;;;5138219;27;20471;-64
2023/07/12 14:49:06;;;;;;;2.87;2.00;;;;;;;;;;5137768;27;20439;-64
2023/07/12 14:51:34;;;;;;;3.23;1.63;;;;;;;;;;5137862;27;20445;-64